createdAt,value
2018-05-24T00:00:19.096Z,6.93
2018-05-24T00:02:46.533Z,5.57
2018-05-24T00:05:14.002Z,3.97
2018-05-24T00:07:41.455Z,4.63
2018-05-24T00:10:09.104Z,10.23
2018-05-24T00:12:36.575Z,3.37
2018-05-24T00:15:04.020Z,4.73
2018-05-24T00:17:31.546Z,5.13
2018-05-24T00:19:59.206Z,4.80
2018-05-24T00:22:26.802Z,6.23
2018-05-24T00:24:54.459Z,5.57
2018-05-24T00:27:22.090Z,3.90
2018-05-24T00:29:49.543Z,6.30
2018-05-24T00:32:16.986Z,5.23
2018-05-24T00:34:44.472Z,6.07
2018-05-24T00:37:12.031Z,4.03
2018-05-24T00:39:39.546Z,6.57
2018-05-24T00:42:07.887Z,6.67
2018-05-24T00:44:35.324Z,4.80
2018-05-24T00:47:02.781Z,6.87
2018-05-24T00:49:30.331Z,4.60
2018-05-24T00:51:57.797Z,6.50
2018-05-24T00:54:25.238Z,9.37
2018-05-24T00:56:52.707Z,6.93
2018-05-24T00:59:20.492Z,5.10
2018-05-24T01:01:48.017Z,4.07
2018-05-24T01:04:15.465Z,5.93
2018-05-24T01:06:42.904Z,5.17
2018-05-24T01:09:10.508Z,4.00
2018-05-24T01:11:38.168Z,4.37
2018-05-24T01:14:05.714Z,5.13
2018-05-24T01:16:33.153Z,5.83
2018-05-24T01:19:00.818Z,7.20
2018-05-24T01:21:28.417Z,4.27
2018-05-24T01:23:55.879Z,8.40
2018-05-24T01:26:23.509Z,3.57
2018-05-24T01:28:50.976Z,4.07
2018-05-24T01:31:18.460Z,3.77
2018-05-24T01:33:46.716Z,4.57
2018-05-24T01:36:14.374Z,4.20
2018-05-24T01:38:42.036Z,5.73
2018-05-24T01:41:09.550Z,4.37
2018-05-24T01:43:36.991Z,5.83
2018-05-24T01:46:04.615Z,6.30
2018-05-24T01:48:32.065Z,4.90
2018-05-24T01:50:59.608Z,5.87
2018-05-24T01:53:27.184Z,5.30
2018-05-24T01:55:54.639Z,5.20
2018-05-24T01:58:22.158Z,5.07
2018-05-24T02:00:49.614Z,7.30
2018-05-24T02:03:17.104Z,4.90
2018-05-24T02:05:44.685Z,6.60
2018-05-24T02:08:12.321Z,4.37
2018-05-24T02:10:39.794Z,7.37
2018-05-24T02:13:07.452Z,4.07
2018-05-24T02:15:34.983Z,3.63
2018-05-24T02:18:02.766Z,8.87
2018-05-24T02:20:30.211Z,3.70
2018-05-24T02:22:57.670Z,4.67
2018-05-24T02:25:25.130Z,3.87
2018-05-24T02:27:52.564Z,4.03
2018-05-24T02:30:20.275Z,3.80
2018-05-24T02:32:47.773Z,4.00
2018-05-24T02:35:15.357Z,5.50
2018-05-24T02:37:42.890Z,4.53
2018-05-24T02:40:10.670Z,5.27
2018-05-24T02:42:38.123Z,5.57
2018-05-24T02:45:05.604Z,6.97
2018-05-24T02:47:33.258Z,6.23
2018-05-24T02:50:00.927Z,4.57
2018-05-24T02:52:28.588Z,5.03
2018-05-24T02:54:56.043Z,4.20
2018-05-24T02:57:23.591Z,5.27
2018-05-24T02:59:51.156Z,5.80
2018-05-24T03:02:18.619Z,5.90
2018-05-24T03:04:46.150Z,4.33
2018-05-24T03:07:13.689Z,6.40
2018-05-24T03:09:41.126Z,4.27
2018-05-24T03:12:09.449Z,6.00
2018-05-24T03:14:37.131Z,3.47
2018-05-24T03:17:04.645Z,4.50
2018-05-24T03:19:32.246Z,3.00
2018-05-24T03:21:59.897Z,4.63
2018-05-24T03:24:27.371Z,6.73
2018-05-24T03:26:56.395Z,6.07
2018-05-24T03:29:23.849Z,3.60
2018-05-24T03:31:52.073Z,4.67
2018-05-24T03:34:19.517Z,3.77
2018-05-24T03:36:46.957Z,4.63
2018-05-24T03:39:14.642Z,5.87
2018-05-24T03:41:42.081Z,5.80
2018-05-24T03:44:09.535Z,6.00
2018-05-24T03:46:37.002Z,4.67
2018-05-24T03:49:04.503Z,6.73
2018-05-24T03:51:32.856Z,4.60
2018-05-24T03:54:00.531Z,6.13
2018-05-24T03:56:27.975Z,3.67
2018-05-24T04:02:07.683Z,4.63
2018-05-24T04:04:47.094Z,4.80
2018-05-24T04:07:14.607Z,4.33
2018-05-24T04:09:42.380Z,3.33
2018-05-24T04:12:10.055Z,6.70
2018-05-24T04:14:37.581Z,5.33
2018-05-24T04:17:05.045Z,5.37
2018-05-24T04:19:32.695Z,6.20
2018-05-24T04:22:00.287Z,3.83
2018-05-24T04:24:27.739Z,4.00
2018-05-24T04:26:55.396Z,6.47
2018-05-24T04:29:22.936Z,3.17
2018-05-24T04:31:50.543Z,5.90
2018-05-24T04:34:18.172Z,3.20
2018-05-24T04:36:45.619Z,4.13
2018-05-24T04:39:13.088Z,4.50
2018-05-24T04:41:40.626Z,4.60
2018-05-24T04:44:08.206Z,3.43
2018-05-24T04:46:35.875Z,4.87
2018-05-24T04:49:03.516Z,3.33
2018-05-24T04:51:31.179Z,3.37
2018-05-24T04:53:58.718Z,4.10
2018-05-24T04:56:26.296Z,5.53
2018-05-24T04:58:53.867Z,3.90
2018-05-24T05:01:21.868Z,3.93
2018-05-24T05:03:49.503Z,3.60
2018-05-24T05:06:16.949Z,5.63
2018-05-24T05:08:44.488Z,4.40
2018-05-24T05:11:11.948Z,5.47
2018-05-24T05:13:39.392Z,5.20
2018-05-24T05:16:06.980Z,5.00
2018-05-24T05:18:34.504Z,4.67
2018-05-24T05:21:01.941Z,3.63
2018-05-24T05:23:29.400Z,4.13
2018-05-24T05:25:56.843Z,3.70
2018-05-24T05:28:24.453Z,3.40
2018-05-24T05:30:51.929Z,4.00
2018-05-24T05:33:19.585Z,5.90
2018-05-24T05:35:47.131Z,4.67
2018-05-24T05:38:14.776Z,3.07
2018-05-24T05:40:42.273Z,3.53
2018-05-24T05:43:09.835Z,3.60
2018-05-24T05:45:37.345Z,3.13
2018-05-24T05:48:04.795Z,4.57
2018-05-24T05:50:32.269Z,6.47
2018-05-24T05:52:59.710Z,4.27
2018-05-24T05:55:27.178Z,3.43
2018-05-24T05:57:54.749Z,3.73
2018-05-24T06:00:22.202Z,4.63
2018-05-24T06:02:49.862Z,5.07
2018-05-24T06:05:17.352Z,3.17
2018-05-24T06:07:44.799Z,6.00
2018-05-24T06:10:13.143Z,4.63
2018-05-24T06:12:40.602Z,3.93
2018-05-24T06:15:08.058Z,8.60
2018-05-24T06:17:35.498Z,3.00
2018-05-24T06:20:03.048Z,3.50
2018-05-24T06:22:30.767Z,3.10
2018-05-24T06:24:58.310Z,3.47
2018-05-24T06:27:25.745Z,3.37
2018-05-24T06:29:53.267Z,4.70
2018-05-24T06:32:21.596Z,4.20
2018-05-24T06:34:49.060Z,4.17
2018-05-24T06:37:16.543Z,4.83
2018-05-24T06:39:44.160Z,5.10
2018-05-24T06:42:11.613Z,5.63
2018-05-24T06:44:39.158Z,6.03
2018-05-24T06:47:06.751Z,4.70
2018-05-24T06:49:34.405Z,7.57
2018-05-24T06:52:01.850Z,7.17
2018-05-24T06:54:29.512Z,3.27
2018-05-24T06:56:57.063Z,4.03
2018-05-24T06:59:24.833Z,6.33
2018-05-24T07:01:52.298Z,7.33
2018-05-24T07:04:19.957Z,5.30
2018-05-24T07:06:47.492Z,4.47
2018-05-24T07:09:15.287Z,8.20
2018-05-24T07:11:42.931Z,3.27
2018-05-24T07:14:10.415Z,4.27
2018-05-24T07:16:38.158Z,4.20
2018-05-24T07:19:05.937Z,5.17
2018-05-24T07:21:35.048Z,4.73
2018-05-24T07:24:02.503Z,4.93
2018-05-24T07:26:30.774Z,3.07
2018-05-24T07:28:58.243Z,4.83
2018-05-24T07:31:25.735Z,5.07
2018-05-24T07:33:53.198Z,3.83
2018-05-24T07:36:20.653Z,7.70
2018-05-24T07:38:48.304Z,3.60
2018-05-24T07:41:15.773Z,6.00
2018-05-24T07:43:43.223Z,4.53
2018-05-24T07:46:10.805Z,8.27
2018-05-24T07:48:38.457Z,3.60
2018-05-24T07:51:05.930Z,4.80
2018-05-24T07:53:33.694Z,3.33
2018-05-24T07:56:01.139Z,4.63
2018-05-24T07:58:28.912Z,4.27
2018-05-24T08:00:56.558Z,6.43
2018-05-24T08:03:24.239Z,5.30
2018-05-24T08:05:51.896Z,6.13
2018-05-24T08:08:19.427Z,4.67
2018-05-24T08:10:46.882Z,6.70
2018-05-24T08:13:14.466Z,7.57
2018-05-24T08:15:42.129Z,6.27
2018-05-24T08:18:09.651Z,4.27
2018-05-24T08:20:37.139Z,4.73
2018-05-24T08:23:04.580Z,5.57
2018-05-24T08:25:32.029Z,5.40
2018-05-24T08:27:59.472Z,4.47
2018-05-24T08:30:27.058Z,7.10
2018-05-24T08:32:54.514Z,3.80
2018-05-24T08:35:21.957Z,4.23
2018-05-24T08:37:49.411Z,6.97
2018-05-24T08:40:16.856Z,4.97
2018-05-24T08:42:44.292Z,4.73
2018-05-24T08:45:11.997Z,6.37
2018-05-24T08:47:39.437Z,7.40
2018-05-24T08:50:07.139Z,6.05
2018-05-24T08:52:34.644Z,4.73
2018-05-24T08:55:02.265Z,6.13
2018-05-24T08:57:29.902Z,10.60
2018-05-24T08:59:57.353Z,7.30
2018-05-24T09:02:25.084Z,5.20
2018-05-24T09:04:52.551Z,5.00
2018-05-24T09:07:20.007Z,4.33
2018-05-24T09:09:47.532Z,6.30
2018-05-24T09:12:15.870Z,6.73
2018-05-24T09:14:43.527Z,5.20
2018-05-24T09:17:12.495Z,7.33
2018-05-24T09:19:40.064Z,5.57
2018-05-24T09:22:07.496Z,4.97
2018-05-24T09:24:34.992Z,6.30
2018-05-24T09:27:02.447Z,6.20
2018-05-24T09:29:30.197Z,9.07
2018-05-24T09:31:57.761Z,5.90
2018-05-24T09:34:25.221Z,8.70
2018-05-24T09:36:52.668Z,7.87
2018-05-24T09:39:20.342Z,7.73
2018-05-24T09:41:47.868Z,6.97
2018-05-24T09:44:15.330Z,7.70
2018-05-24T09:46:42.893Z,10.73
2018-05-24T09:49:10.344Z,8.87
2018-05-24T09:51:38.033Z,7.27
2018-05-24T09:54:05.488Z,8.53
2018-05-24T09:56:33.138Z,5.83
2018-05-24T09:59:00.669Z,6.40
2018-05-24T10:01:28.126Z,6.27
2018-05-24T10:03:55.564Z,6.13
2018-05-24T10:06:23.167Z,7.53
2018-05-24T10:08:50.816Z,6.27
2018-05-24T10:11:18.485Z,5.43
2018-05-24T10:13:46.137Z,6.57
2018-05-24T10:16:13.789Z,9.63
2018-05-24T10:18:41.253Z,8.70
2018-05-24T10:21:08.711Z,6.67
2018-05-24T10:23:36.276Z,8.17
2018-05-24T10:26:03.640Z,7.87
2018-05-24T10:28:31.299Z,5.70
2018-05-24T10:30:58.736Z,6.30
2018-05-24T10:33:26.234Z,7.30
2018-05-24T10:35:53.679Z,7.77
2018-05-24T10:38:21.188Z,9.20
2018-05-24T10:40:48.807Z,7.00
2018-05-24T10:43:16.299Z,8.77
2018-05-24T10:45:43.755Z,9.30
2018-05-24T10:48:11.353Z,8.17
2018-05-24T10:50:39.017Z,6.97
2018-05-24T10:53:06.639Z,10.53
2018-05-24T10:55:34.319Z,6.83
2018-05-24T10:58:01.823Z,11.73
2018-05-24T11:00:29.337Z,6.13
2018-05-24T11:02:57.026Z,9.80
2018-05-24T11:05:24.439Z,9.97
2018-05-24T11:07:52.045Z,8.47
2018-05-24T11:10:19.549Z,6.23
2018-05-24T11:12:47.136Z,8.27
2018-05-24T11:15:14.587Z,7.43
2018-05-24T11:17:42.248Z,8.30
2018-05-24T11:20:11.249Z,8.93
2018-05-24T11:22:39.087Z,7.40
2018-05-24T11:25:08.874Z,7.53
2018-05-24T11:27:36.258Z,8.30
2018-05-24T11:30:03.839Z,12.73
2018-05-24T11:32:31.504Z,10.97
2018-05-24T11:34:59.023Z,9.07
2018-05-24T11:37:27.427Z,9.70
2018-05-24T11:39:54.963Z,7.97
2018-05-24T11:42:22.435Z,7.53
2018-05-24T11:44:49.897Z,9.03
2018-05-24T11:47:17.356Z,10.30
2018-05-24T11:49:45.117Z,7.70
2018-05-24T11:52:12.663Z,9.43
2018-05-24T11:54:40.243Z,6.80
2018-05-24T11:57:07.766Z,7.57
2018-05-24T11:59:35.359Z,11.50
2018-05-24T12:02:02.830Z,8.20
2018-05-24T12:04:30.344Z,6.97
2018-05-24T12:06:57.823Z,9.17
2018-05-24T12:09:25.368Z,8.47
2018-05-24T12:11:52.863Z,10.97
2018-05-24T12:14:21.100Z,6.87
2018-05-24T12:16:48.759Z,7.40
2018-05-24T12:19:16.239Z,6.07
2018-05-24T12:21:44.502Z,8.10
2018-05-24T12:24:12.034Z,9.77
2018-05-24T12:26:39.627Z,8.57
2018-05-24T12:29:08.705Z,8.87
2018-05-24T12:31:36.982Z,12.43
2018-05-24T12:34:04.446Z,11.10
2018-05-24T12:36:31.983Z,8.93
2018-05-24T12:38:59.553Z,7.30
2018-05-24T12:41:27.040Z,9.47
2018-05-24T12:43:54.553Z,7.77
2018-05-24T12:46:22.035Z,6.33
2018-05-24T12:48:49.666Z,8.20
2018-05-24T12:51:17.254Z,6.10
2018-05-24T12:53:44.702Z,6.40
2018-05-24T12:56:12.430Z,6.80
2018-05-24T12:58:39.899Z,6.33
2018-05-24T13:01:07.480Z,8.30
2018-05-24T13:03:34.932Z,9.40
2018-05-24T13:06:02.589Z,8.07
2018-05-24T13:08:30.034Z,7.43
2018-05-24T13:10:57.717Z,6.47
2018-05-24T13:13:25.386Z,6.33
2018-05-24T13:15:53.176Z,7.43
2018-05-24T13:18:20.755Z,6.33
2018-05-24T13:20:48.450Z,8.50
2018-05-24T13:23:16.098Z,7.17
2018-05-24T13:25:43.553Z,5.90
2018-05-24T13:28:11.002Z,10.47
2018-05-24T13:30:38.457Z,9.17
2018-05-24T13:33:05.960Z,7.33
2018-05-24T13:35:33.498Z,8.43
2018-05-24T13:38:01.034Z,8.93
2018-05-24T13:40:28.647Z,7.83
2018-05-24T13:42:56.088Z,7.60
2018-05-24T13:45:24.868Z,8.30
2018-05-24T13:47:53.278Z,7.23
2018-05-24T13:50:20.793Z,6.07
2018-05-24T13:52:48.358Z,6.90
2018-05-24T13:55:15.861Z,7.27
2018-05-24T13:57:46.220Z,8.53
2018-05-24T14:00:14.010Z,6.07
2018-05-24T14:02:41.515Z,5.87
2018-05-24T14:05:09.041Z,9.20
2018-05-24T14:07:36.526Z,6.63
2018-05-24T14:10:04.036Z,5.40
2018-05-24T14:12:31.691Z,5.83
2018-05-24T14:14:59.131Z,7.23
2018-05-24T14:17:26.834Z,13.00
2018-05-24T14:19:54.479Z,6.00
2018-05-24T14:22:21.913Z,8.07
2018-05-24T14:24:49.557Z,6.17
2018-05-24T14:27:17.057Z,7.03
2018-05-24T14:29:44.508Z,7.30
2018-05-24T14:32:11.980Z,10.33
2018-05-24T14:34:39.435Z,5.30
2018-05-24T14:37:07.055Z,4.90
2018-05-24T14:39:34.712Z,6.07
2018-05-24T14:42:02.183Z,4.43
2018-05-24T14:44:30.118Z,7.20
2018-05-24T14:46:57.632Z,8.27
2018-05-24T14:49:25.113Z,7.10
2018-05-24T14:51:52.658Z,4.80
2018-05-24T14:54:20.184Z,5.23
2018-05-24T14:56:48.492Z,6.37
2018-05-24T14:59:16.204Z,9.13
2018-05-24T15:01:43.811Z,7.90
2018-05-24T15:04:11.342Z,4.43
2018-05-24T15:06:38.903Z,8.03
2018-05-24T15:09:06.547Z,6.33
2018-05-24T15:11:34.148Z,8.77
2018-05-24T15:14:01.690Z,5.20
2018-05-24T15:16:29.138Z,10.03
2018-05-24T15:18:56.707Z,5.30
2018-05-24T15:21:25.070Z,5.77
2018-05-24T15:23:52.570Z,8.13
2018-05-24T15:26:20.141Z,7.77
2018-05-24T15:28:48.027Z,5.53
2018-05-24T15:31:15.682Z,9.90
2018-05-24T15:33:44.356Z,5.57
2018-05-24T15:36:11.820Z,5.27
2018-05-24T15:38:39.370Z,7.53
2018-05-24T15:41:06.921Z,4.87
2018-05-24T15:43:34.537Z,4.80
2018-05-24T15:46:01.960Z,5.07
2018-05-24T15:48:31.587Z,5.70
2018-05-24T15:50:59.128Z,5.73
2018-05-24T15:53:26.785Z,5.40
2018-05-24T15:55:54.259Z,5.80
2018-05-24T15:58:21.920Z,6.50
2018-05-24T16:00:49.610Z,7.73
2018-05-24T16:03:17.232Z,6.70
2018-05-24T16:05:44.718Z,8.87
2018-05-24T16:08:12.356Z,6.57
2018-05-24T16:10:39.873Z,9.63
2018-05-24T16:13:07.336Z,8.70
2018-05-24T16:15:34.913Z,7.90
2018-05-24T16:18:02.656Z,6.97
2018-05-24T16:20:30.248Z,7.33
2018-05-24T16:22:57.755Z,11.83
2018-05-24T16:25:25.436Z,8.90
2018-05-24T16:27:52.883Z,7.10
2018-05-24T16:30:20.890Z,7.90
2018-05-24T16:32:49.203Z,7.70
2018-05-24T16:35:17.029Z,8.03
2018-05-24T16:37:44.697Z,8.20
2018-05-24T16:40:12.230Z,9.80
2018-05-24T16:42:39.807Z,8.47
2018-05-24T16:45:08.330Z,8.77
2018-05-24T16:47:35.932Z,8.60
2018-05-24T16:50:03.418Z,9.17
2018-05-24T16:52:31.872Z,12.57
2018-05-24T16:54:59.329Z,9.03
2018-05-24T16:57:26.879Z,7.20
2018-05-24T16:59:54.411Z,7.20
2018-05-24T17:02:21.865Z,6.27
2018-05-24T17:04:49.386Z,6.67
2018-05-24T17:07:16.832Z,7.47
2018-05-24T17:09:44.330Z,8.03
2018-05-24T17:12:11.795Z,6.57
2018-05-24T17:14:39.265Z,7.27
2018-05-24T17:17:06.871Z,7.33
2018-05-24T17:19:34.546Z,7.77
2018-05-24T17:22:02.111Z,7.37
2018-05-24T17:24:30.506Z,7.63
2018-05-24T17:26:58.111Z,9.23
2018-05-24T17:29:25.575Z,7.63
2018-05-24T17:31:53.121Z,7.40
2018-05-24T17:34:20.684Z,7.90
2018-05-24T17:36:48.421Z,7.07
2018-05-24T17:39:16.006Z,9.47
2018-05-24T17:41:43.539Z,7.57
2018-05-24T17:44:11.019Z,7.87
2018-05-24T17:46:38.599Z,9.23
2018-05-24T17:49:06.097Z,7.57
2018-05-24T17:51:34.456Z,7.47
2018-05-24T17:54:02.788Z,7.57
2018-05-24T17:56:30.250Z,7.73
2018-05-24T17:58:57.690Z,8.13
2018-05-24T18:01:25.223Z,7.23
2018-05-24T18:03:52.684Z,7.40
2018-05-24T18:06:20.150Z,8.65
2018-05-24T18:08:47.930Z,8.80
2018-05-24T18:11:15.503Z,10.70
2018-05-24T18:13:42.944Z,7.20
2018-05-24T18:16:10.488Z,8.83
2018-05-24T18:18:38.030Z,7.73
2018-05-24T18:21:05.534Z,8.10
2018-05-24T18:23:32.981Z,7.47
2018-05-24T18:26:01.343Z,8.13
2018-05-24T18:28:28.828Z,7.83
2018-05-24T18:30:56.419Z,8.13
2018-05-24T18:33:24.685Z,8.40
2018-05-24T18:35:52.205Z,8.63
2018-05-24T18:38:19.836Z,11.67
2018-05-24T18:40:47.325Z,9.07
2018-05-24T18:43:14.977Z,8.73
2018-05-24T18:45:42.564Z,9.33
2018-05-24T18:48:10.684Z,9.07
2018-05-24T18:50:38.173Z,9.10
2018-05-24T18:53:05.734Z,8.83
2018-05-24T18:55:34.093Z,9.57
2018-05-24T18:58:01.645Z,8.43
2018-05-24T19:00:29.142Z,8.87
2018-05-24T19:02:57.497Z,8.53
2018-05-24T19:05:25.426Z,10.20
2018-05-24T19:07:52.900Z,8.77
2018-05-24T19:10:21.145Z,9.60
2018-05-24T19:12:48.599Z,8.37
2018-05-24T19:15:16.104Z,9.10
2018-05-24T19:17:43.536Z,11.63
2018-05-24T19:20:11.186Z,9.60
2018-05-24T19:22:38.802Z,9.50
2018-05-24T19:25:07.259Z,12.50
2018-05-24T19:27:34.905Z,9.60
2018-05-24T19:30:02.360Z,8.60
2018-05-24T19:32:29.922Z,10.93
2018-05-24T19:34:57.411Z,9.37
2018-05-24T19:37:25.979Z,9.10
2018-05-24T19:39:55.011Z,12.03
2018-05-24T19:42:23.358Z,9.83
2018-05-24T19:44:50.867Z,9.30
2018-05-24T19:47:18.453Z,9.53
2018-05-24T19:49:46.146Z,10.17
2018-05-24T19:52:13.654Z,9.00
2018-05-24T19:54:41.112Z,9.87
2018-05-24T19:57:08.676Z,9.23
2018-05-24T19:59:36.140Z,9.47
2018-05-24T20:02:03.796Z,9.10
2018-05-24T20:04:31.457Z,11.17
2018-05-24T20:06:58.955Z,9.63
2018-05-24T20:09:26.463Z,9.33
2018-05-24T20:11:54.037Z,10.60
2018-05-24T20:14:21.566Z,9.53
2018-05-24T20:16:49.157Z,9.17
2018-05-24T20:19:16.812Z,10.63
2018-05-24T20:21:44.351Z,9.63
2018-05-24T20:24:11.809Z,9.67
2018-05-24T20:26:39.258Z,9.10
2018-05-24T20:29:06.963Z,9.67
2018-05-24T20:31:34.433Z,10.33
2018-05-24T20:34:01.956Z,10.80
2018-05-24T20:36:29.544Z,10.20
2018-05-24T20:38:57.298Z,9.77
2018-05-24T20:41:24.924Z,9.87
2018-05-24T20:43:52.392Z,11.27
2018-05-24T20:46:19.852Z,9.67
2018-05-24T20:48:47.313Z,11.90
2018-05-24T20:51:14.967Z,10.07
2018-05-24T20:53:42.501Z,10.57
2018-05-24T20:56:10.020Z,10.97
2018-05-24T20:58:38.304Z,10.30
2018-05-24T21:01:06.516Z,13.07
2018-05-24T21:03:34.085Z,11.00
2018-05-24T21:06:01.625Z,13.43
2018-05-24T21:08:29.433Z,12.07
2018-05-24T21:10:56.908Z,10.60
2018-05-24T21:13:24.554Z,11.70
2018-05-24T21:15:52.032Z,10.73
2018-05-24T21:18:19.495Z,11.07
2018-05-24T21:20:46.966Z,13.53
2018-05-24T21:23:14.552Z,11.77
2018-05-24T21:25:41.996Z,13.50
2018-05-24T21:28:09.689Z,12.07
2018-05-24T21:30:37.350Z,12.13
2018-05-24T21:33:04.891Z,12.83
2018-05-24T21:35:32.324Z,12.87
2018-05-24T21:37:59.964Z,13.90
2018-05-24T21:40:27.363Z,13.53
2018-05-24T21:42:54.842Z,12.57
2018-05-24T21:45:22.372Z,12.83
2018-05-24T21:47:49.838Z,13.40
2018-05-24T21:50:17.400Z,13.13
2018-05-24T21:52:45.050Z,14.57
2018-05-24T21:55:12.598Z,13.93
2018-05-24T21:57:40.199Z,16.40
2018-05-24T22:00:07.882Z,13.70
2018-05-24T22:02:37.230Z,13.43
2018-05-24T22:05:04.695Z,13.57
2018-05-24T22:07:32.204Z,13.00
2018-05-24T22:09:59.738Z,13.10
2018-05-24T22:12:27.207Z,13.07
2018-05-24T22:14:54.715Z,13.53
2018-05-24T22:17:22.278Z,13.07
2018-05-24T22:19:49.937Z,12.60
2018-05-24T22:22:17.599Z,13.77
2018-05-24T22:24:45.061Z,13.10
2018-05-24T22:27:12.593Z,13.97
2018-05-24T22:29:40.183Z,14.10
2018-05-24T22:32:07.843Z,15.03
2018-05-24T22:34:36.818Z,13.63
2018-05-24T22:37:04.393Z,14.27
2018-05-24T22:39:32.045Z,13.77
2018-05-24T22:41:59.576Z,16.73
2018-05-24T22:44:27.032Z,13.03
2018-05-24T22:46:54.507Z,13.47
2018-05-24T22:49:22.187Z,13.73
2018-05-24T22:51:49.724Z,13.27
2018-05-24T22:54:17.407Z,14.60
2018-05-24T22:56:45.129Z,14.10
2018-05-24T22:59:12.584Z,13.13
2018-05-24T23:01:40.164Z,13.90
2018-05-24T23:04:07.865Z,14.00
2018-05-24T23:06:35.322Z,13.70
2018-05-24T23:09:02.801Z,12.90
2018-05-24T23:11:30.402Z,14.80
2018-05-24T23:13:58.066Z,13.23
2018-05-24T23:16:26.307Z,15.43
2018-05-24T23:18:53.818Z,13.20
2018-05-24T23:21:21.364Z,13.07
2018-05-24T23:23:48.805Z,14.10
2018-05-24T23:26:16.388Z,13.10
2018-05-24T23:28:44.034Z,13.40
2018-05-24T23:31:11.707Z,13.33
2018-05-24T23:33:39.240Z,14.10
2018-05-24T23:36:06.705Z,12.73
2018-05-24T23:38:34.503Z,13.57
2018-05-24T23:41:02.168Z,12.77
2018-05-24T23:43:29.635Z,13.67
2018-05-24T23:45:57.275Z,13.23
2018-05-24T23:48:24.945Z,13.30
2018-05-24T23:50:52.581Z,13.73
2018-05-24T23:53:20.114Z,12.77
2018-05-24T23:55:47.750Z,13.17
2018-05-24T23:58:15.362Z,12.90
